KEOK/EOK METAR and TAF weather

Enter ICAO airport designator
Station Type Date Time Source
KEOK METAR 2019/08/22 15:35 UTC NOAA

KEOK 221535Z AUTO 35005KT 10SM CLR 23/19 A3003 RMK AO2


Station Type Date Time Source
KEOK Decoded METAR 2019/08/22 15:35 UTC NOAA

Station name not available
Aug 22, 2019 - 11:35 AM EDT / 2019.08.22 1535 UTC
Wind: from the N (350 degrees) at 6 MPH (5 KT):0
Visibility: 10 mile(s):0
Sky conditions: clear
Temperature: 73 F (23 C)
Dew Point: 66 F (19 C)
Relative Humidity: 78%
Pressure (altimeter): 30.03 in. Hg (1016 hPa)
ob: KEOK 221535Z AUTO 35005KT 10SM CLR 23/19 A3003 RMK AO2
cycle: 15

Station Type Date Time Source
KEOK TAF UTC NOAA

Error!

Example: see airport list